createdAt,value
2019-06-07T00:01:36.414Z,14.35
2019-06-07T00:06:39.948Z,14.27
2019-06-07T00:11:43.127Z,14.31
2019-06-07T00:16:46.735Z,14.28
2019-06-07T00:26:58.778Z,14.37
2019-06-07T00:32:00.088Z,14.21
2019-06-07T00:37:03.927Z,14.25
2019-06-07T00:42:06.940Z,14.33
2019-06-07T00:47:10.726Z,14.35
2019-06-07T00:53:05.637Z,14.36
2019-06-07T00:57:19.861Z,14.35
2019-06-07T01:02:28.292Z,14.49
2019-06-07T01:07:29.102Z,14.61
2019-06-07T01:12:32.334Z,14.44
2019-06-07T01:17:50.053Z,14.28
2019-06-07T01:22:39.364Z,14.37
2019-06-07T01:27:42.906Z,14.41
2019-06-07T01:32:45.874Z,14.42
2019-06-07T01:37:49.436Z,14.33
2019-06-07T01:42:52.407Z,14.22
2019-06-07T01:47:55.394Z,14.20
2019-06-07T01:52:58.308Z,14.13
2019-06-07T01:58:01.192Z,14.12
2019-06-07T02:03:04.513Z,13.81
2019-06-07T02:08:08.055Z,13.73
2019-06-07T02:13:11.379Z,13.97
2019-06-07T02:18:14.664Z,14.11
2019-06-07T02:23:17.931Z,14.11
2019-06-07T02:28:32.037Z,14.21
2019-06-07T02:33:31.115Z,14.00
2019-06-07T02:38:37.265Z,14.03
2019-06-07T02:43:37.572Z,14.17
2019-06-07T02:48:40.634Z,14.17
2019-06-07T02:53:43.680Z,14.25
2019-06-07T02:58:47.000Z,14.14
2019-06-07T03:03:50.322Z,14.11
2019-06-07T03:08:55.244Z,14.11
2019-06-07T03:14:00.576Z,14.18
2019-06-07T03:19:23.940Z,14.24
2019-06-07T03:24:30.063Z,14.23
2019-06-07T03:29:36.559Z,14.13
2019-06-07T03:34:43.315Z,14.19
2019-06-07T03:39:44.203Z,14.21
2019-06-07T03:44:47.442Z,14.43
2019-06-07T03:49:50.691Z,14.60
2019-06-07T03:54:53.957Z,14.68
2019-06-07T03:59:57.472Z,14.67
2019-06-07T04:05:00.425Z,14.69
2019-06-07T04:10:04.804Z,14.72
2019-06-07T04:15:08.654Z,14.67
2019-06-07T04:20:13.484Z,14.69
2019-06-07T04:25:16.696Z,14.69
2019-06-07T04:30:55.019Z,14.59
2019-06-07T04:35:58.971Z,14.53
2019-06-07T04:41:02.467Z,14.31
2019-06-07T04:46:05.775Z,14.45
2019-06-07T04:51:11.548Z,14.45
2019-06-07T04:56:14.805Z,14.82
2019-06-07T05:01:27.402Z,15.25
2019-06-07T05:06:22.903Z,15.31
2019-06-07T05:11:25.447Z,15.23
2019-06-07T05:16:30.465Z,15.48
2019-06-07T05:21:58.337Z,15.33
2019-06-07T05:26:42.848Z,15.34
2019-06-07T05:31:46.866Z,15.63
2019-06-07T05:37:10.595Z,15.99
2019-06-07T05:41:55.772Z,16.20
2019-06-07T05:46:59.338Z,16.40
2019-06-07T05:52:02.652Z,16.50
2019-06-07T05:57:05.975Z,16.56
2019-06-07T06:02:22.136Z,16.47
2019-06-07T06:07:14.610Z,16.69
2019-06-07T06:12:33.823Z,16.67
2019-06-07T06:17:23.109Z,16.77
2019-06-07T06:22:26.637Z,16.71
2019-06-07T06:28:03.414Z,17.17
2019-06-07T06:32:50.977Z,17.79
2019-06-07T06:37:42.425Z,17.03
2019-06-07T06:42:50.071Z,17.31
2019-06-07T06:47:52.176Z,17.54
2019-06-07T06:52:55.462Z,17.33
2019-06-07T06:57:58.814Z,17.01
2019-06-07T07:03:47.844Z,17.19
2019-06-07T07:08:06.944Z,17.72
2019-06-07T07:13:10.412Z,18.01
2019-06-07T07:18:13.412Z,18.64
2019-06-07T07:23:17.425Z,19.48
2019-06-07T07:28:21.164Z,19.69
2019-06-07T07:33:25.062Z,19.67
2019-06-07T07:38:28.301Z,20.18
2019-06-07T07:43:31.753Z,20.44
2019-06-07T07:48:34.658Z,20.58
2019-06-07T07:53:50.749Z,19.27
2019-06-07T07:58:42.768Z,20.06
2019-06-07T08:03:46.020Z,20.05
2019-06-07T08:08:51.219Z,19.72
2019-06-07T08:13:57.251Z,20.54
2019-06-07T08:19:03.890Z,20.55
2019-06-07T08:24:05.611Z,20.62
2019-06-07T08:29:08.588Z,20.44
2019-06-07T08:34:11.862Z,20.65
2019-06-07T08:39:21.416Z,20.29
2019-06-07T08:44:25.761Z,20.40
2019-06-07T08:49:28.916Z,20.11
2019-06-07T08:54:32.141Z,20.38
2019-06-07T08:59:34.676Z,20.04
2019-06-07T09:04:38.271Z,20.42
2019-06-07T09:09:41.662Z,20.78
2019-06-07T09:14:59.587Z,20.35
2019-06-07T09:19:50.253Z,19.74
2019-06-07T09:25:05.918Z,20.28
2019-06-07T09:30:07.687Z,20.90
2019-06-07T09:35:12.392Z,21.17
2019-06-07T09:40:24.853Z,21.26
2019-06-07T09:45:17.223Z,20.60
2019-06-07T09:50:20.127Z,20.98
2019-06-07T09:55:25.029Z,21.05
2019-06-07T10:00:43.785Z,20.83
2019-06-07T10:05:33.797Z,20.92
2019-06-07T10:10:35.985Z,21.16
2019-06-07T10:15:39.316Z,20.98
2019-06-07T10:20:42.593Z,21.15
2019-06-07T10:25:45.438Z,21.32
2019-06-07T10:30:48.433Z,21.28
2019-06-07T10:35:51.773Z,21.21
2019-06-07T10:40:55.008Z,21.34
2019-06-07T10:45:58.422Z,21.36
2019-06-07T10:51:02.227Z,21.09
2019-06-07T10:56:06.963Z,21.32
2019-06-07T11:01:12.390Z,21.65
2019-06-07T11:06:15.369Z,21.77
2019-06-07T11:11:18.880Z,21.72
2019-06-07T11:16:21.437Z,21.64
2019-06-07T11:21:24.575Z,21.60
2019-06-07T11:26:27.599Z,21.80
2019-06-07T11:31:30.777Z,21.95
2019-06-07T11:36:34.129Z,21.92
2019-06-07T11:41:37.164Z,21.94
2019-06-07T11:46:40.443Z,22.15
2019-06-07T11:51:43.387Z,22.23
2019-06-07T11:56:46.740Z,22.67
2019-06-07T12:01:49.627Z,22.94
2019-06-07T12:06:52.941Z,23.23
2019-06-07T12:11:56.049Z,23.31
2019-06-07T12:16:58.952Z,23.41
2019-06-07T12:22:02.268Z,24.00
2019-06-07T12:27:05.516Z,23.82
2019-06-07T12:32:09.101Z,24.03
2019-06-07T12:37:13.639Z,24.28
2019-06-07T12:42:18.553Z,24.78
2019-06-07T12:47:24.193Z,24.78
2019-06-07T12:52:27.813Z,23.60
2019-06-07T12:57:30.891Z,24.49
2019-06-07T13:02:34.193Z,23.20
2019-06-07T13:07:37.779Z,23.47
2019-06-07T13:12:44.184Z,23.30
2019-06-07T13:17:47.584Z,22.53
2019-06-07T13:22:50.928Z,22.48
2019-06-07T13:27:54.531Z,21.76
2019-06-07T13:32:58.099Z,23.36
2019-06-07T13:38:04.457Z,24.09
2019-06-07T13:43:07.767Z,23.48
2019-06-07T13:48:10.790Z,24.19
2019-06-07T13:53:14.415Z,24.26
2019-06-07T13:58:18.683Z,25.20
2019-06-07T14:03:29.309Z,24.27
2019-06-07T14:08:31.379Z,25.50
2019-06-07T14:13:35.026Z,25.30
2019-06-07T14:18:38.576Z,24.60
2019-06-07T14:23:48.728Z,24.65
2019-06-07T14:28:47.678Z,25.21
2019-06-07T14:33:50.617Z,25.25
2019-06-07T14:38:53.900Z,24.28
2019-06-07T14:43:57.242Z,24.33
2019-06-07T14:49:00.656Z,25.60
2019-06-07T14:54:04.545Z,25.60
2019-06-07T14:59:08.005Z,25.33
2019-06-07T15:04:11.523Z,25.76
2019-06-07T15:09:14.428Z,25.17
2019-06-07T15:14:17.724Z,26.07
2019-06-07T15:19:24.149Z,24.75
2019-06-07T15:24:28.113Z,25.20
2019-06-07T15:29:32.169Z,25.25
2019-06-07T15:34:36.334Z,25.25
2019-06-07T15:39:39.812Z,25.35
2019-06-07T15:44:43.119Z,26.46
2019-06-07T15:49:46.872Z,26.24
2019-06-07T15:54:49.974Z,25.18
2019-06-07T15:59:53.375Z,26.19
2019-06-07T16:04:55.944Z,26.61
2019-06-07T16:09:59.606Z,27.14
2019-06-07T16:15:03.426Z,26.52
2019-06-07T16:20:07.990Z,26.49
2019-06-07T16:25:11.053Z,25.46
2019-06-07T16:30:14.969Z,25.75
2019-06-07T16:35:18.473Z,25.96
2019-06-07T16:40:22.945Z,25.83
2019-06-07T16:45:26.372Z,26.08
2019-06-07T16:50:29.924Z,26.18
2019-06-07T16:55:33.256Z,25.40
2019-06-07T17:00:36.468Z,25.24
2019-06-07T17:05:40.487Z,25.42
2019-06-07T17:10:46.286Z,25.61
2019-06-07T17:15:49.600Z,24.50
2019-06-07T17:20:52.992Z,24.65
2019-06-07T17:25:56.282Z,24.65
2019-06-07T17:30:59.783Z,24.81
2019-06-07T17:36:03.419Z,24.31
2019-06-07T17:41:06.583Z,24.27
2019-06-07T17:46:12.717Z,23.18
2019-06-07T17:51:16.293Z,23.42
2019-06-07T17:56:19.605Z,23.18
2019-06-07T18:01:23.009Z,23.02
2019-06-07T18:06:27.861Z,23.33
2019-06-07T18:11:31.132Z,23.01
2019-06-07T18:16:34.433Z,22.77
2019-06-07T18:21:37.792Z,22.13
2019-06-07T18:26:40.771Z,21.42
2019-06-07T18:31:43.643Z,20.82
2019-06-07T18:36:47.007Z,20.43
2019-06-07T18:41:53.239Z,20.34
2019-06-07T18:46:57.076Z,20.16
2019-06-07T18:52:22.679Z,20.00
2019-06-07T18:57:25.967Z,19.90
2019-06-07T19:02:30.405Z,19.57
2019-06-07T19:07:33.733Z,19.44
2019-06-07T19:12:37.140Z,19.18
2019-06-07T19:17:40.055Z,19.37
2019-06-07T19:22:43.663Z,19.31
2019-06-07T19:27:46.970Z,19.17
2019-06-07T19:32:51.419Z,18.91
2019-06-07T19:37:55.758Z,18.83
2019-06-07T19:43:00.597Z,18.95
2019-06-07T19:48:04.594Z,18.71
2019-06-07T19:53:07.921Z,18.72
2019-06-07T19:58:11.253Z,18.82
2019-06-07T20:03:14.839Z,18.83
2019-06-07T20:08:17.467Z,18.84
2019-06-07T20:13:21.048Z,18.77
2019-06-07T20:18:27.779Z,18.89
2019-06-07T20:23:29.626Z,18.74
2019-06-07T20:28:32.252Z,18.73
2019-06-07T20:33:35.886Z,18.53
2019-06-07T20:38:39.547Z,18.57
2019-06-07T20:43:42.186Z,18.38
2019-06-07T20:48:45.949Z,18.35
2019-06-07T20:53:49.618Z,18.14
2019-06-07T20:58:52.889Z,18.30
2019-06-07T21:03:55.905Z,18.13
2019-06-07T21:08:59.338Z,18.01
2019-06-07T21:14:02.572Z,18.21
2019-06-07T21:19:06.353Z,18.06
2019-06-07T21:24:10.870Z,18.25
2019-06-07T21:29:14.581Z,18.09
2019-06-07T21:34:17.835Z,17.96
2019-06-07T21:39:21.080Z,18.02
2019-06-07T21:44:24.087Z,17.90
2019-06-07T21:49:27.341Z,17.74
2019-06-07T21:54:30.710Z,17.97
2019-06-07T21:59:34.148Z,17.81
2019-06-07T22:04:37.043Z,18.14
2019-06-07T22:09:39.947Z,18.22
2019-06-07T22:14:44.270Z,18.29
2019-06-07T22:19:47.805Z,18.28
2019-06-07T22:24:51.407Z,18.50
2019-06-07T22:29:54.681Z,18.84
2019-06-07T22:34:58.303Z,18.61
2019-06-07T22:40:01.760Z,18.33
2019-06-07T22:45:06.059Z,17.70
2019-06-07T22:50:11.326Z,17.34
2019-06-07T22:55:18.195Z,17.17
2019-06-07T23:00:21.919Z,17.10
2019-06-07T23:05:25.070Z,17.02
2019-06-07T23:10:28.287Z,17.18
2019-06-07T23:15:31.807Z,17.44
2019-06-07T23:20:35.029Z,17.54
2019-06-07T23:25:38.537Z,17.65
2019-06-07T23:30:41.490Z,17.34
2019-06-07T23:35:45.219Z,17.47
2019-06-07T23:40:48.223Z,17.67
2019-06-07T23:45:51.854Z,17.53
2019-06-07T23:50:55.510Z,17.60
2019-06-07T23:55:58.855Z,17.75
